Time;durP1;ratioP1;P1;durP2;ratioP2;P2;SDS_P1;SDS_P2;PMS_P1;PMS_P2;Temp;Humidity;BMP_temperature;BMP_pressure;BME280_temperature;BME280_humidity;BME280_pressure;Samples;Min_cycle;Max_cycle;Signal;HPM_P1;HPM_P2
2022/03/10 00:00:11;;;;;;;;;;;;;;;29.86;18.27;101085.75;5097010;28;838;-47
2022/03/10 00:02:37;;;;;;;;;;;;;;;30.06;18.17;101094.06;5085004;28;1902;-45
2022/03/10 00:05:03;;;;;;;;;;;;;;;30.29;17.85;101095.75;5097023;28;817;-45
2022/03/10 00:07:28;;;;;;;;;;;;;;;30.34;17.85;101100.56;5096365;28;1183;-44
2022/03/10 00:09:53;;;;;;;;;;;;;;;30.42;17.71;101098.56;5097196;28;715;-44
2022/03/10 00:12:19;;;;;;;;;;;;;;;30.64;17.56;101098.50;5096677;28;921;-45
2022/03/10 00:14:44;;;;;;;;;;;;;;;30.95;17.18;101101.03;5093366;28;844;-46
2022/03/10 00:17:09;;;;;;;;;;;;;;;31.24;16.88;101099.03;5088083;28;813;-46
2022/03/10 00:19:35;;;;;;;;;;;;;;;31.49;16.92;101093.09;5096408;28;908;-45
2022/03/10 00:22:00;;;;;;;;;;;;;;;31.63;16.75;101093.97;5096362;28;2033;-45
2022/03/10 00:24:25;;;;;;;;;;;;;;;31.94;16.19;101092.56;5096761;28;817;-47
2022/03/10 00:26:50;;;;;;;;;;;;;;;32.10;16.31;101090.47;5091042;28;910;-46
2022/03/10 00:29:16;;;;;;;;;;;;;;;32.24;16.08;101094.91;5095750;28;796;-47
2022/03/10 00:31:41;;;;;;;;;;;;;;;30.82;17.09;101096.31;5085005;28;855;-47
2022/03/10 00:34:06;;;;;;;;;;;;;;;30.32;18.01;101092.63;5096152;28;901;-49
2022/03/10 00:36:32;;;;;;;;;;;;;;;30.78;17.47;101087.72;5096308;28;759;-47
2022/03/10 00:38:57;;;;;;;;;;;;;;;30.92;17.07;101092.22;5095459;28;1128;-47
2022/03/10 00:41:22;;;;;;;;;;;;;;;30.99;17.06;101088.69;5092360;28;897;-48
2022/03/10 00:43:48;;;;;;;;;;;;;;;31.08;17.17;101098.34;5096207;28;1897;-46
2022/03/10 00:46:13;;;;;;;;;;;;;;;31.15;17.01;101101.94;5090905;28;817;-46
2022/03/10 00:48:39;;;;;;;;;;;;;;;31.25;16.86;101103.44;5096357;28;757;-46
2022/03/10 00:51:04;;;;;;;;;;;;;;;31.43;16.70;101105.63;5095847;28;765;-46
2022/03/10 00:53:29;;;;;;;;;;;;;;;31.64;16.58;101090.22;5090016;28;793;-48
2022/03/10 00:55:55;;;;;;;;;;;;;;;31.89;16.19;101093.19;5096293;28;828;-48
2022/03/10 00:58:20;;;;;;;;;;;;;;;32.16;15.77;101094.25;5096183;28;1161;-49
2022/03/10 01:00:46;;;;;;;;;;;;;;;32.27;16.06;101099.06;5093095;28;772;-45
2022/03/10 01:03:11;;;;;;;;;;;;;;;31.07;16.82;101099.38;5095680;28;1957;-50
2022/03/10 01:05:36;;;;;;;;;;;;;;;30.85;17.23;101102.19;5091033;28;829;-48
2022/03/10 01:08:01;;;;;;;;;;;;;;;31.36;16.67;101099.31;5095761;28;1007;-46
2022/03/10 01:10:27;;;;;;;;;;;;;;;31.24;16.78;101096.31;5095938;28;768;-47
2022/03/10 01:12:52;;;;;;;;;;;;;;;31.23;16.94;101100.09;5096089;28;734;-47
2022/03/10 01:15:22;;;;;;;;;;;;;;;31.26;16.66;101103.22;5094864;28;934;-48
2022/03/10 01:17:48;;;;;;;;;;;;;;;31.38;16.77;101099.94;5077897;28;842;-46
2022/03/10 01:20:13;;;;;;;;;;;;;;;31.60;16.57;101094.38;5096010;28;790;-47
2022/03/10 01:22:38;;;;;;;;;;;;;;;31.81;16.24;101098.81;5095729;28;1902;-45
2022/03/10 01:25:04;;;;;;;;;;;;;;;32.02;16.02;101096.97;5082566;28;769;-44
2022/03/10 01:27:29;;;;;;;;;;;;;;;32.28;15.69;101089.88;5076359;28;808;-45
2022/03/10 01:29:54;;;;;;;;;;;;;;;31.66;16.20;101096.28;5075648;28;846;-46
2022/03/10 01:32:20;;;;;;;;;;;;;;;30.71;17.48;101095.00;5084638;28;832;-48
2022/03/10 01:34:45;;;;;;;;;;;;;;;30.96;17.18;101092.66;5095716;28;853;-45
2022/03/10 01:37:10;;;;;;;;;;;;;;;30.44;17.45;101087.50;5095410;28;900;-46
2022/03/10 01:39:36;;;;;;;;;;;;;;;30.17;18.15;101095.41;5095960;28;744;-46
2022/03/10 01:42:03;;;;;;;;;;;;;;;29.96;18.13;101099.81;5095501;28;1951;-44
2022/03/10 01:44:28;;;;;;;;;;;;;;;29.69;18.40;101099.53;5090104;28;904;-46
2022/03/10 01:46:53;;;;;;;;;;;;;;;29.53;18.80;101100.59;5089225;28;855;-46
2022/03/10 01:49:19;;;;;;;;;;;;;;;29.25;18.85;101095.88;5095726;28;1020;-45
2022/03/10 01:51:44;;;;;;;;;;;;;;;30.27;17.91;101095.94;5095813;28;870;-45
2022/03/10 01:54:09;;;;;;;;;;;;;;;30.91;17.29;101093.25;5095685;28;806;-46
2022/03/10 01:56:35;;;;;;;;;;;;;;;30.92;17.16;101104.97;5091875;28;1481;-47
2022/03/10 01:59:01;;;;;;;;;;;;;;;30.92;17.08;101097.66;5095378;28;766;-46
2022/03/10 02:01:27;;;;;;;;;;;;;;;31.10;16.94;101095.41;5094254;28;864;-45
2022/03/10 02:03:52;;;;;;;;;;;;;;;31.22;16.85;101096.53;5099452;28;1914;-44
2022/03/10 02:06:17;;;;;;;;;;;;;;;31.53;16.75;101105.25;5099319;28;908;-46
2022/03/10 02:11:27;;;;;;;;;;;;;;;31.96;16.08;101092.34;5098981;28;764;-46
2022/03/10 02:13:52;;;;;;;;;;;;;;;32.23;15.81;101100.56;5098766;28;798;-44
2022/03/10 02:19:03;;;;;;;;;;;;;;;30.58;17.64;101098.47;5079439;28;857;-46
2022/03/10 02:21:28;;;;;;;;;;;;;;;30.80;17.35;101099.25;5083151;28;842;-47
2022/03/10 02:23:53;;;;;;;;;;;;;;;31.31;16.58;101102.63;5098501;28;1991;-46
2022/03/10 02:26:19;;;;;;;;;;;;;;;31.33;16.85;101110.59;5098754;28;708;-46
2022/03/10 02:28:44;;;;;;;;;;;;;;;31.36;16.82;101111.03;5098743;28;845;-46
2022/03/10 02:31:09;;;;;;;;;;;;;;;31.35;16.72;101113.91;5090158;28;944;-47
2022/03/10 02:33:35;;;;;;;;;;;;;;;31.38;16.66;101119.78;5097724;28;794;-45
2022/03/10 02:36:00;;;;;;;;;;;;;;;31.48;16.77;101121.34;5090044;28;879;-45
2022/03/10 02:38:25;;;;;;;;;;;;;;;31.19;16.48;101115.97;5098393;28;745;-44
2022/03/10 02:40:51;;;;;;;;;;;;;;;30.67;17.54;101119.84;5098239;28;920;-46
2022/03/10 02:43:17;;;;;;;;;;;;;;;30.91;17.45;101125.03;5098352;28;1893;-45
2022/03/10 02:45:42;;;;;;;;;;;;;;;31.33;16.93;101122.28;5091977;28;843;-46
2022/03/10 02:48:07;;;;;;;;;;;;;;;31.46;16.75;101123.41;5092453;28;836;-44
2022/03/10 02:50:32;;;;;;;;;;;;;;;31.44;16.75;101125.50;5097968;28;861;-45
2022/03/10 02:52:58;;;;;;;;;;;;;;;31.12;17.05;101129.53;5098378;28;893;-47
2022/03/10 02:55:23;;;;;;;;;;;;;;;31.32;16.65;101120.63;5098572;28;840;-47
2022/03/10 02:57:49;;;;;;;;;;;;;;;31.52;16.53;101119.88;5098101;28;726;-43
2022/03/10 03:00:14;;;;;;;;;;;;;;;31.77;16.25;101117.44;5093017;28;757;-45
2022/03/10 03:02:40;;;;;;;;;;;;;;;31.96;16.33;101109.56;5085476;28;1897;-44
2022/03/10 03:05:06;;;;;;;;;;;;;;;32.18;15.85;101112.03;5098202;28;972;-48
2022/03/10 03:07:32;;;;;;;;;;;;;;;31.80;16.38;101118.88;5098037;28;1225;-44
2022/03/10 03:09:57;;;;;;;;;;;;;;;30.84;17.08;101111.41;5098394;28;817;-44
2022/03/10 03:12:22;;;;;;;;;;;;;;;30.81;17.42;101114.53;5095920;28;818;-43
2022/03/10 03:14:47;;;;;;;;;;;;;;;31.40;16.98;101125.06;5098034;28;757;-47
2022/03/10 03:17:13;;;;;;;;;;;;;;;31.48;16.64;101113.19;5091469;28;825;-48
2022/03/10 03:19:38;;;;;;;;;;;;;;;31.48;16.74;101114.00;5097386;28;867;-46
2022/03/10 03:22:04;;;;;;;;;;;;;;;31.32;16.89;101114.31;5097757;28;1963;-47
2022/03/10 03:24:29;;;;;;;;;;;;;;;31.30;16.77;101106.38;5097998;28;754;-45
2022/03/10 03:26:54;;;;;;;;;;;;;;;31.46;16.47;101109.81;5089629;28;942;-46
2022/03/10 03:29:20;;;;;;;;;;;;;;;31.68;16.28;101115.94;5097417;28;893;-46
2022/03/10 03:31:45;;;;;;;;;;;;;;;31.87;16.32;101113.47;5091420;28;835;-47
2022/03/10 03:34:10;;;;;;;;;;;;;;;32.15;16.02;101115.19;5097511;28;809;-48
2022/03/10 03:36:42;;;;;;;;;;;;;;;32.10;16.27;101117.69;5097227;28;934;-49
2022/03/10 03:39:08;;;;;;;;;;;;;;;30.91;16.83;101127.75;5096995;28;839;-47
2022/03/10 03:41:33;;;;;;;;;;;;;;;30.42;17.48;101128.41;5096790;28;802;-44
2022/03/10 03:43:58;;;;;;;;;;;;;;;31.36;16.72;101119.19;5097336;28;1901;-48
2022/03/10 03:46:23;;;;;;;;;;;;;;;31.57;16.40;101119.25;5095093;28;798;-44
2022/03/10 03:48:49;;;;;;;;;;;;;;;31.67;16.30;101121.56;5096961;28;820;-46
2022/03/10 03:51:14;;;;;;;;;;;;;;;31.49;16.62;101123.00;5092770;28;793;-46
2022/03/10 03:53:40;;;;;;;;;;;;;;;31.36;16.60;101123.78;5097569;28;853;-46
2022/03/10 03:56:05;;;;;;;;;;;;;;;31.49;16.75;101118.41;5078238;28;1032;-46
2022/03/10 03:58:30;;;;;;;;;;;;;;;31.69;16.31;101117.63;5097043;28;855;-46
2022/03/10 04:00:55;;;;;;;;;;;;;;;31.75;16.36;101124.94;5087983;28;828;-44
2022/03/10 04:03:21;;;;;;;;;;;;;;;31.11;16.82;101132.44;5089020;28;1968;-46
2022/03/10 04:05:46;;;;;;;;;;;;;;;31.12;17.02;101126.81;5077501;28;810;-45
2022/03/10 04:08:11;;;;;;;;;;;;;;;31.47;16.79;101131.38;5077417;28;1169;-48
2022/03/10 04:10:37;;;;;;;;;;;;;;;31.38;16.72;101127.13;5077281;28;814;-45
2022/03/10 04:13:02;;;;;;;;;;;;;;;31.23;16.89;101130.00;5077038;28;798;-46
2022/03/10 04:15:27;;;;;;;;;;;;;;;31.26;16.81;101127.69;5074735;28;884;-44
2022/03/10 04:17:53;;;;;;;;;;;;;;;31.36;16.73;101113.75;5093581;28;851;-47
2022/03/10 04:20:18;;;;;;;;;;;;;;;30.42;11.90;101111.28;5096689;28;1513;-42
2022/03/10 04:22:43;;;;;;;;;;;;;;;27.48;12.85;101111.91;5096261;28;1910;-42
2022/03/10 04:25:09;;;;;;;;;;;;;;;26.34;13.06;101107.44;5095938;28;856;-42
2022/03/10 04:27:35;;;;;;;;;;;;;;;25.47;12.57;101101.34;5096334;28;802;-42
2022/03/10 04:30:00;;;;;;;;;;;;;;;26.56;14.95;101107.78;5065431;28;886;-47
2022/03/10 04:32:25;;;;;;;;;;;;;;;27.97;15.45;101112.66;5092927;28;824;-47
2022/03/10 04:34:51;;;;;;;;;;;;;;;28.91;15.37;101114.38;5096511;28;757;-45
2022/03/10 04:37:16;;;;;;;;;;;;;;;29.19;15.29;101120.00;5096368;28;1078;-47
2022/03/10 04:39:41;;;;;;;;;;;;;;;29.41;15.63;101125.47;5096219;28;809;-45
2022/03/10 04:42:07;;;;;;;;;;;;;;;29.45;15.59;101131.34;5092792;28;1902;-45
2022/03/10 04:44:32;;;;;;;;;;;;;;;29.07;14.66;101125.06;5070416;28;808;-45
2022/03/10 04:46:57;;;;;;;;;;;;;;;27.77;16.43;101135.75;5075858;28;978;-46
2022/03/10 04:49:23;;;;;;;;;;;;;;;26.29;14.27;101137.59;5076570;28;782;-46
2022/03/10 04:51:48;;;;;;;;;;;;;;;26.07;14.17;101139.06;5076758;28;734;-44
2022/03/10 04:54:13;;;;;;;;;;;;;;;27.69;13.78;101147.47;5076729;28;819;-43
2022/03/10 04:56:39;;;;;;;;;;;;;;;27.94;12.85;101142.75;5076362;28;759;-43
2022/03/10 04:59:04;;;;;;;;;;;;;;;28.27;11.61;101148.94;5095858;28;1195;-44
2022/03/10 05:01:29;;;;;;;;;;;;;;;28.29;11.72;101155.84;5089144;28;854;-43
2022/03/10 05:03:55;;;;;;;;;;;;;;;24.26;12.81;101140.44;5096191;28;1914;-56
2022/03/10 05:06:22;;;;;;;;;;;;;;;23.81;12.24;101145.69;5096144;28;936;-38
2022/03/10 05:08:47;;;;;;;;;;;;;;;23.14;12.98;101152.03;5068730;28;1377;-45
2022/03/10 05:11:12;;;;;;;;;;;;;;;22.92;13.04;101153.22;5075626;28;754;-44
2022/03/10 05:13:38;;;;;;;;;;;;;;;22.84;13.38;101156.63;5075954;28;754;-47
2022/03/10 05:16:03;;;;;;;;;;;;;;;22.90;13.66;101152.53;5068383;28;877;-43
2022/03/10 05:18:29;;;;;;;;;;;;;;;22.85;14.61;101144.91;5075549;28;858;-45
2022/03/10 05:20:54;;;;;;;;;;;;;;;22.23;15.33;101168.34;5069333;28;812;-44
2022/03/10 05:23:19;;;;;;;;;;;;;;;23.72;14.08;101152.78;5075569;28;1973;-42
2022/03/10 05:25:44;;;;;;;;;;;;;;;23.84;14.75;101142.69;5075237;28;842;-44
2022/03/10 05:28:14;;;;;;;;;;;;;;;23.47;14.57;101155.19;5076127;28;840;-44
2022/03/10 05:30:39;;;;;;;;;;;;;;;22.50;15.09;101160.59;5072972;28;867;-45
2022/03/10 05:33:05;;;;;;;;;;;;;;;22.54;15.68;101164.66;5072665;28;842;-43
2022/03/10 05:35:30;;;;;;;;;;;;;;;23.02;15.54;101170.16;5076749;28;782;-43
2022/03/10 05:37:56;;;;;;;;;;;;;;;23.23;15.20;101163.72;5079601;28;865;-42
2022/03/10 05:40:21;;;;;;;;;;;;;;;23.62;15.32;101170.81;5079733;28;746;-44
2022/03/10 05:42:47;;;;;;;;;;;;;;;23.38;15.06;101184.72;5079354;28;1969;-43
2022/03/10 05:45:12;;;;;;;;;;;;;;;23.64;14.83;101184.09;5069243;28;822;-43
2022/03/10 05:47:44;;;;;;;;;;;;;;;23.45;14.34;101191.25;5061159;28;763;-42
2022/03/10 05:50:09;;;;;;;;;;;;;;;23.71;14.77;101169.06;5058451;28;1266;-42
2022/03/10 05:52:35;;;;;;;;;;;;;;;23.74;15.78;101176.81;5060003;28;798;-43
2022/03/10 05:55:00;;;;;;;;;;;;;;;23.97;15.38;101181.78;5060188;28;829;-45
2022/03/10 05:57:26;;;;;;;;;;;;;;;23.92;15.55;101176.84;5059725;28;773;-44
2022/03/10 05:59:51;;;;;;;;;;;;;;;24.33;15.72;101183.69;5077710;28;853;-44
2022/03/10 06:02:17;;;;;;;;;;;;;;;24.17;15.96;101187.06;5060334;28;1902;-43
2022/03/10 06:04:42;;;;;;;;;;;;;;;24.17;14.52;101190.56;5059481;28;799;-43
2022/03/10 06:07:08;;;;;;;;;;;;;;;24.59;15.26;101185.59;5066040;28;1178;-44
2022/03/10 06:09:33;;;;;;;;;;;;;;;24.79;15.06;101190.81;5079746;28;815;-43
2022/03/10 06:11:59;;;;;;;;;;;;;;;25.25;15.27;101184.41;5089690;28;1183;-43
2022/03/10 06:14:24;;;;;;;;;;;;;;;24.96;15.26;101189.09;5099133;28;886;-44
2022/03/10 06:16:49;;;;;;;;;;;;;;;24.90;16.82;101193.28;5095034;28;834;-42
2022/03/10 06:19:15;;;;;;;;;;;;;;;25.33;17.44;101195.22;5098943;28;804;-40
2022/03/10 06:21:41;;;;;;;;;;;;;;;25.51;17.18;101197.81;5099285;28;829;-42
2022/03/10 06:24:07;;;;;;;;;;;;;;;25.30;17.34;101198.22;5094820;28;1970;-44
2022/03/10 06:26:32;;;;;;;;;;;;;;;26.08;17.57;101191.97;5080305;28;1126;-45
2022/03/10 06:28:57;;;;;;;;;;;;;;;26.18;17.21;101192.69;5099230;28;758;-54
2022/03/10 06:31:24;;;;;;;;;;;;;;;26.00;17.82;101196.34;5071617;28;934;-42
2022/03/10 06:33:50;;;;;;;;;;;;;;;26.08;16.96;101195.53;5098532;28;1020;-43
2022/03/10 06:36:15;;;;;;;;;;;;;;;25.98;17.20;101211.84;5085841;28;964;-43
2022/03/10 06:38:40;;;;;;;;;;;;;;;25.91;17.44;101208.09;5098547;28;977;-44
2022/03/10 06:41:05;;;;;;;;;;;;;;;25.77;17.35;101198.81;5098732;28;730;-46
2022/03/10 06:43:31;;;;;;;;;;;;;;;25.87;17.43;101209.47;5080194;28;1901;-43
2022/03/10 06:45:56;;;;;;;;;;;;;;;26.04;17.58;101213.06;5092342;28;831;-43
2022/03/10 06:48:21;;;;;;;;;;;;;;;26.32;17.37;101211.91;5096231;28;884;-43
2022/03/10 06:50:47;;;;;;;;;;;;;;;26.14;17.58;101205.63;5097745;28;813;-43
2022/03/10 06:53:13;;;;;;;;;;;;;;;26.33;17.74;101208.22;5098155;28;838;-49
2022/03/10 06:55:38;;;;;;;;;;;;;;;25.84;19.02;101213.31;5098308;28;817;-43
2022/03/10 06:58:03;;;;;;;;;;;;;;;25.49;19.18;101207.09;5098609;28;762;-41
2022/03/10 07:00:29;;;;;;;;;;;;;;;25.40;18.89;101200.81;5095528;28;901;-42
2022/03/10 07:02:54;;;;;;;;;;;;;;;25.32;19.43;101215.06;5082711;28;1901;-40
2022/03/10 07:05:20;;;;;;;;;;;;;;;25.55;20.44;101215.38;5098219;28;888;-47
2022/03/10 07:07:45;;;;;;;;;;;;;;;26.08;18.77;101216.25;5097422;28;1007;-43
2022/03/10 07:10:10;;;;;;;;;;;;;;;26.14;18.14;101218.31;5098128;28;862;-45
2022/03/10 07:12:36;;;;;;;;;;;;;;;26.16;17.94;101218.97;5097714;28;841;-42
2022/03/10 07:15:03;;;;;;;;;;;;;;;26.06;17.96;101215.59;5095112;28;791;-44
2022/03/10 07:17:28;;;;;;;;;;;;;;;26.12;17.64;101218.47;5077064;28;974;-43
2022/03/10 07:19:53;;;;;;;;;;;;;;;26.19;18.86;101207.88;5061026;28;734;-44
2022/03/10 07:22:19;;;;;;;;;;;;;;;26.50;18.15;101218.03;5078015;28;1906;-41
2022/03/10 07:24:45;;;;;;;;;;;;;;;26.56;18.27;101227.31;5077995;28;826;-43
2022/03/10 07:27:10;;;;;;;;;;;;;;;26.63;17.73;101228.34;5071501;28;1198;-46
2022/03/10 07:29:35;;;;;;;;;;;;;;;26.69;18.60;101229.53;5071493;28;1491;-49
2022/03/10 07:34:36;;;;;;;;;;;;;;;26.23;17.92;101224.53;5122503;22;6897;-46
2022/03/10 07:37:01;;;;;;;;;;;;;;;26.34;17.60;101220.72;5006509;28;1026;-45
2022/03/10 07:39:27;;;;;;;;;;;;;;;26.28;17.47;101233.84;5003423;28;1126;-44
2022/03/10 07:41:53;;;;;;;;;;;;;;;26.35;17.50;101236.75;5005536;28;1231;-47
2022/03/10 07:44:18;;;;;;;;;;;;;;;26.35;17.22;101230.50;5010942;28;1918;-46
2022/03/10 07:46:43;;;;;;;;;;;;;;;27.18;17.10;101238.63;5006318;28;1211;-47
2022/03/10 07:49:09;;;;;;;;;;;;;;;27.58;17.04;101245.94;5011614;28;1116;-47
2022/03/10 07:51:34;;;;;;;;;;;;;;;27.33;16.97;101243.31;5010710;28;1191;-45
2022/03/10 07:53:59;;;;;;;;;;;;;;;26.79;16.97;101234.75;5012957;28;1211;-49
2022/03/10 07:56:25;;;;;;;;;;;;;;;25.76;18.55;101241.06;5007212;28;1222;-48
2022/03/10 07:58:50;;;;;;;;;;;;;;;25.06;19.22;101227.53;4997646;28;880;-45
2022/03/10 08:01:15;;;;;;;;;;;;;;;25.21;19.22;101236.91;5000055;28;809;-44
2022/03/10 08:03:41;;;;;;;;;;;;;;;25.16;19.09;101238.19;5017133;28;1898;-47
2022/03/10 08:06:06;;;;;;;;;;;;;;;25.58;18.45;101232.19;5008085;28;949;-45
2022/03/10 08:08:31;;;;;;;;;;;;;;;26.63;17.20;101235.56;5012074;28;1262;-47
2022/03/10 08:10:57;;;;;;;;;;;;;;;26.85;16.96;101244.88;5017294;28;864;-48
2022/03/10 08:13:26;;;;;;;;;;;;;;;26.96;17.43;101251.78;5017291;28;906;-46
2022/03/10 08:15:51;;;;;;;;;;;;;;;27.75;16.21;101249.47;5012176;28;885;-46
2022/03/10 08:18:17;;;;;;;;;;;;;;;27.04;16.57;101248.28;5016420;28;833;-50
2022/03/10 08:20:42;;;;;;;;;;;;;;;26.90;16.94;101250.59;5004136;28;957;-46
2022/03/10 08:23:07;;;;;;;;;;;;;;;26.97;16.75;101237.28;5007603;28;1930;-48
2022/03/10 08:25:33;;;;;;;;;;;;;;;27.10;16.44;101252.13;4998321;28;971;-50
2022/03/10 08:27:58;;;;;;;;;;;;;;;26.92;16.73;101244.19;5009679;28;834;-49
2022/03/10 08:30:24;;;;;;;;;;;;;;;26.98;16.78;101246.19;5000108;28;879;-48
2022/03/10 08:32:49;;;;;;;;;;;;;;;27.24;16.97;101259.53;5004239;28;1208;-45
2022/03/10 08:35:16;;;;;;;;;;;;;;;27.30;16.69;101249.06;4998110;28;761;-46
2022/03/10 08:37:43;;;;;;;;;;;;;;;27.18;16.76;101254.81;4998238;28;1173;-47
2022/03/10 08:40:09;;;;;;;;;;;;;;;27.18;16.52;101248.56;5009065;28;1283;-47
2022/03/10 08:42:34;;;;;;;;;;;;;;;27.07;16.60;101249.78;5015593;28;1910;-45
2022/03/10 08:44:59;;;;;;;;;;;;;;;27.00;16.97;101244.19;5012695;28;843;-43
2022/03/10 08:47:25;;;;;;;;;;;;;;;27.14;16.84;101248.91;4998470;28;979;-47
2022/03/10 08:49:50;;;;;;;;;;;;;;;27.23;16.52;101249.75;5002021;28;1049;-45
2022/03/10 08:52:15;;;;;;;;;;;;;;;27.27;16.58;101244.84;5003826;28;1081;-47
2022/03/10 08:54:41;;;;;;;;;;;;;;;27.28;16.46;101256.50;4997515;28;810;-49
2022/03/10 08:57:06;;;;;;;;;;;;;;;27.14;16.57;101246.22;5003650;28;924;-47
2022/03/10 08:59:31;;;;;;;;;;;;;;;27.31;16.72;101246.19;4997723;28;814;-46
2022/03/10 09:01:57;;;;;;;;;;;;;;;27.34;16.68;101253.13;5005542;28;860;-44
2022/03/10 09:04:22;;;;;;;;;;;;;;;27.34;16.56;101253.13;5016169;28;1968;-49
2022/03/10 09:06:48;;;;;;;;;;;;;;;27.38;16.72;101252.59;5016050;28;782;-46
2022/03/10 09:09:14;;;;;;;;;;;;;;;27.42;16.18;101255.78;5010266;28;1123;-45
2022/03/10 09:11:39;;;;;;;;;;;;;;;27.33;16.29;101236.06;5007213;28;1235;-47
2022/03/10 09:14:04;;;;;;;;;;;;;;;27.42;16.38;101242.28;5009077;28;1239;-44
2022/03/10 09:16:29;;;;;;;;;;;;;;;27.41;16.54;101242.47;5012575;28;872;-50
2022/03/10 09:18:55;;;;;;;;;;;;;;;27.41;16.37;101245.16;4997310;28;1065;-48
2022/03/10 09:21:20;;;;;;;;;;;;;;;27.43;16.09;101245.81;5010868;28;1159;-49
2022/03/10 09:23:45;;;;;;;;;;;;;;;27.32;16.49;101258.69;5009333;28;1976;-43
2022/03/10 09:26:11;;;;;;;;;;;;;;;27.16;16.47;101247.91;5009159;28;944;-42
2022/03/10 09:28:37;;;;;;;;;;;;;;;27.20;16.30;101249.25;4998630;28;906;-47
2022/03/10 09:31:02;;;;;;;;;;;;;;;27.26;16.56;101245.84;5010994;28;1220;-43
2022/03/10 09:33:27;;;;;;;;;;;;;;;27.31;16.21;101250.75;5016113;28;1400;-46
2022/03/10 09:35:53;;;;;;;;;;;;;;;27.32;16.27;101236.22;5011800;28;766;-44
2022/03/10 09:38:18;;;;;;;;;;;;;;;27.24;16.35;101242.50;4997014;28;895;-42
2022/03/10 09:40:43;;;;;;;;;;;;;;;27.31;16.34;101248.88;4997109;28;742;-45
2022/03/10 09:43:09;;;;;;;;;;;;;;;27.26;16.00;101240.44;4997429;28;1911;-45
2022/03/10 09:45:35;;;;;;;;;;;;;;;27.34;15.87;101250.41;4999566;28;949;-44
2022/03/10 09:48:00;;;;;;;;;;;;;;;27.27;16.50;101252.97;5009887;28;805;-45
2022/03/10 09:50:26;;;;;;;;;;;;;;;27.32;15.85;101263.25;4996125;28;809;-47
2022/03/10 09:52:51;;;;;;;;;;;;;;;27.29;16.27;101256.34;4995688;28;1264;-44
2022/03/10 09:55:16;;;;;;;;;;;;;;;27.22;16.17;101258.03;4997273;28;869;-44
2022/03/10 09:57:42;;;;;;;;;;;;;;;27.12;16.14;101253.66;4997131;28;836;-48
2022/03/10 10:00:10;;;;;;;;;;;;;;;27.21;16.16;101251.78;5002615;28;867;-49
2022/03/10 10:02:36;;;;;;;;;;;;;;;27.33;15.97;101254.97;5005527;28;1961;-48
2022/03/10 10:05:01;;;;;;;;;;;;;;;27.30;16.20;101260.72;4997308;28;828;-50
2022/03/10 10:07:27;;;;;;;;;;;;;;;27.40;16.21;101252.41;4997181;28;820;-47
2022/03/10 10:09:54;;;;;;;;;;;;;;;27.41;15.83;101254.09;4996891;28;842;-40
2022/03/10 10:12:22;;;;;;;;;;;;;;;27.33;16.32;101262.22;4997839;28;829;-41
2022/03/10 10:14:48;;;;;;;;;;;;;;;27.39;15.98;101258.84;5003009;28;873;-42
2022/03/10 10:17:13;;;;;;;;;;;;;;;27.22;15.93;101248.06;5009244;28;995;-43
2022/03/10 10:19:40;;;;;;;;;;;;;;;26.86;16.48;101261.91;5015794;28;892;-45
2022/03/10 10:22:15;;;;;;;;;;;;;;;26.98;16.29;101255.16;5016446;28;818;-42
2022/03/10 10:24:40;;;;;;;;;;;;;;;27.16;16.12;101253.31;5018870;28;791;-45
2022/03/10 10:27:13;;;;;;;;;;;;;;;27.32;15.99;101257.84;5008189;28;852;-46
2022/03/10 10:29:47;;;;;;;;;;;;;;;27.34;16.02;101243.13;5000252;28;818;-43
2022/03/10 10:32:12;;;;;;;;;;;;;;;27.31;15.94;101254.28;5013704;28;848;-44
2022/03/10 10:34:37;;;;;;;;;;;;;;;27.37;15.66;101274.38;4999861;28;1082;-46
2022/03/10 10:37:03;;;;;;;;;;;;;;;27.35;14.82;101252.94;5000671;28;706;-46
2022/03/10 10:39:28;;;;;;;;;;;;;;;27.40;15.51;101244.31;5006197;28;908;-42
2022/03/10 10:41:53;;;;;;;;;;;;;;;27.55;15.31;101251.69;5006628;28;1132;-44
2022/03/10 10:44:20;;;;;;;;;;;;;;;27.60;15.46;101265.53;5011515;28;1918;-42
2022/03/10 10:46:48;;;;;;;;;;;;;;;27.47;15.68;101257.97;5006894;28;1539;-43
2022/03/10 10:49:17;;;;;;;;;;;;;;;27.57;15.30;101258.63;5005879;28;1156;-42
2022/03/10 10:51:45;;;;;;;;;;;;;;;27.61;15.23;101249.13;5013694;28;1151;-42
2022/03/10 10:54:20;;;;;;;;;;;;;;;27.62;15.46;101241.88;5010406;28;1159;-44
2022/03/10 10:56:58;;;;;;;;;;;;;;;27.11;15.33;101183.63;5012235;28;1251;-42
2022/03/10 10:59:27;;;;;;;;;;;;;;;27.89;15.26;101260.56;5006118;28;1306;-42
2022/03/10 11:02:02;;;;;;;;;;;;;;;27.94;15.17;101267.13;5009979;28;1199;-43
2022/03/10 11:04:28;;;;;;;;;;;;;;;27.81;15.07;101266.84;5005719;28;1902;-45
2022/03/10 11:06:53;;;;;;;;;;;;;;;27.70;15.21;101266.22;4999718;28;967;-44
2022/03/10 11:09:18;;;;;;;;;;;;;;;27.66;15.34;101259.41;5008094;28;937;-41
2022/03/10 11:11:44;;;;;;;;;;;;;;;27.58;15.32;101265.69;5017925;28;865;-42
2022/03/10 11:14:09;;;;;;;;;;;;;;;27.42;15.66;101277.41;5017723;28;828;-43
2022/03/10 11:16:35;;;;;;;;;;;;;;;27.16;15.51;101278.44;5011907;28;864;-46
2022/03/10 11:19:00;;;;;;;;;;;;;;;27.27;15.83;101282.66;5004271;28;756;-45
2022/03/10 11:21:38;;;;;;;;;;;;;;;27.37;15.85;101279.78;4998375;28;849;-46
2022/03/10 11:24:09;;;;;;;;;;;;;;;27.33;15.86;101271.16;5008165;28;1959;-44
2022/03/10 11:26:37;;;;;;;;;;;;;;;27.25;15.94;101290.94;5010939;28;1192;-40
2022/03/10 11:29:02;;;;;;;;;;;;;;;27.12;15.67;101293.31;5007666;28;1235;-43
2022/03/10 11:31:28;;;;;;;;;;;;;;;26.88;16.22;101286.88;5006244;28;1212;-48
2022/03/10 11:33:54;;;;;;;;;;;;;;;26.73;16.32;101298.34;4997765;28;1255;-44
2022/03/10 11:36:22;;;;;;;;;;;;;;;26.63;16.39;101292.25;4998653;28;781;-43
2022/03/10 11:38:55;;;;;;;;;;;;;;;26.51;16.59;101291.72;5011127;28;1232;-44
2022/03/10 11:41:23;;;;;;;;;;;;;;;26.46;16.67;101302.19;5011309;28;1230;-45
2022/03/10 11:43:58;;;;;;;;;;;;;;;26.42;16.60;101307.06;5005475;28;1965;-42
2022/03/10 11:46:24;;;;;;;;;;;;;;;26.05;17.16;101301.00;5008623;28;989;-45
2022/03/10 11:48:59;;;;;;;;;;;;;;;27.22;16.33;101303.94;5017929;28;825;-40
2022/03/10 11:51:39;;;;;;;;;;;;;;;27.61;15.55;101308.59;5017449;28;912;-46
2022/03/10 11:54:05;;;;;;;;;;;;;;;26.70;16.79;101304.06;5017661;28;743;-42
2022/03/10 11:56:34;;;;;;;;;;;;;;;26.48;16.77;101314.47;5017694;28;867;-44
2022/03/10 11:59:15;;;;;;;;;;;;;;;26.15;17.28;101320.59;5016194;28;966;-44
2022/03/10 12:01:44;;;;;;;;;;;;;;;26.33;17.19;101318.81;5012355;28;1183;-42
2022/03/10 12:04:13;;;;;;;;;;;;;;;26.34;16.91;101321.34;5014149;28;1993;-42
2022/03/10 12:06:38;;;;;;;;;;;;;;;26.12;17.37;101314.69;5016795;28;779;-41
2022/03/10 12:09:05;;;;;;;;;;;;;;;26.63;16.62;101311.13;5007484;28;1191;-42
2022/03/10 12:11:46;;;;;;;;;;;;;;;26.84;16.23;101321.44;4998379;28;837;-46
2022/03/10 12:14:24;;;;;;;;;;;;;;;26.86;16.43;101313.22;4998590;28;989;-45
2022/03/10 12:16:50;;;;;;;;;;;;;;;26.67;16.78;101314.34;4998587;28;876;-45
2022/03/10 12:19:15;;;;;;;;;;;;;;;27.32;16.04;101331.63;4998052;28;857;-44
2022/03/10 12:21:41;;;;;;;;;;;;;;;27.66;15.46;101318.06;5004572;28;862;-46
2022/03/10 12:24:07;;;;;;;;;;;;;;;27.66;15.54;101328.88;4997317;28;1894;-44
2022/03/10 12:26:33;;;;;;;;;;;;;;;27.05;16.33;101328.25;4998353;28;754;-43
2022/03/10 12:29:08;;;;;;;;;;;;;;;27.16;16.01;101326.22;5003413;28;822;-45
2022/03/10 12:31:35;;;;;;;;;;;;;;;26.65;16.87;101314.50;5001946;28;1067;-40
2022/03/10 12:34:01;;;;;;;;;;;;;;;26.91;16.56;101316.22;5002484;28;1014;-41
2022/03/10 12:36:34;;;;;;;;;;;;;;;27.33;16.31;101329.75;5002118;28;1026;-43
2022/03/10 12:39:00;;;;;;;;;;;;;;;27.67;15.82;101361.13;5016236;28;868;-41
2022/03/10 12:41:33;;;;;;;;;;;;;;;27.55;15.60;101352.53;5016532;28;941;-42
2022/03/10 12:43:58;;;;;;;;;;;;;;;27.96;15.35;101346.19;5016972;28;1894;-42
2022/03/10 12:46:24;;;;;;;;;;;;;;;28.07;15.58;101345.00;5011135;28;1143;-39
2022/03/10 12:48:58;;;;;;;;;;;;;;;27.15;16.34;101341.59;5012011;28;896;-44
2022/03/10 12:51:25;;;;;;;;;;;;;;;27.22;16.83;101339.91;4997704;28;769;-42
2022/03/10 12:53:51;;;;;;;;;;;;;;;27.34;16.54;101340.38;4997799;28;944;-44